sensor_id;sensor_type;location;lat;lon;timestamp;P1;durP1;ratioP1;P2;durP2;ratioP2
29812;SDS011;16707;48.106;11.548;2022-08-19T00:00:10;15.07;;;10.00;;
29812;SDS011;16707;48.106;11.548;2022-08-19T00:02:39;14.88;;;9.82;;
29812;SDS011;16707;48.106;11.548;2022-08-19T00:05:09;15.27;;;9.18;;
29812;SDS011;16707;48.106;11.548;2022-08-19T00:07:44;14.18;;;8.82;;
29812;SDS011;16707;48.106;11.548;2022-08-19T00:10:13;14.57;;;9.50;;
29812;SDS011;16707;48.106;11.548;2022-08-19T00:12:49;16.30;;;9.60;;
29812;SDS011;16707;48.106;11.548;2022-08-19T00:15:20;14.85;;;9.48;;
29812;SDS011;16707;48.106;11.548;2022-08-19T00:17:51;13.95;;;8.60;;
29812;SDS011;16707;48.106;11.548;2022-08-19T00:20:23;13.25;;;8.75;;
29812;SDS011;16707;48.106;11.548;2022-08-19T00:22:51;12.32;;;8.75;;
29812;SDS011;16707;48.106;11.548;2022-08-19T00:25:21;14.60;;;9.65;;
29812;SDS011;16707;48.106;11.548;2022-08-19T00:27:55;15.13;;;9.35;;
29812;SDS011;16707;48.106;11.548;2022-08-19T00:30:22;14.65;;;10.10;;
29812;SDS011;16707;48.106;11.548;2022-08-19T00:32:53;13.82;;;9.70;;
29812;SDS011;16707;48.106;11.548;2022-08-19T00:35:27;15.38;;;9.88;;
29812;SDS011;16707;48.106;11.548;2022-08-19T00:38:01;16.02;;;10.07;;
29812;SDS011;16707;48.106;11.548;2022-08-19T00:40:32;15.80;;;9.83;;
29812;SDS011;16707;48.106;11.548;2022-08-19T00:43:07;17.20;;;9.60;;
29812;SDS011;16707;48.106;11.548;2022-08-19T00:45:44;14.30;;;9.73;;
29812;SDS011;16707;48.106;11.548;2022-08-19T00:48:19;14.73;;;9.90;;
29812;SDS011;16707;48.106;11.548;2022-08-19T00:50:52;16.90;;;10.50;;
29812;SDS011;16707;48.106;11.548;2022-08-19T00:53:22;15.75;;;10.20;;
29812;SDS011;16707;48.106;11.548;2022-08-19T00:55:56;16.98;;;10.88;;
29812;SDS011;16707;48.106;11.548;2022-08-19T00:58:30;16.25;;;10.85;;
29812;SDS011;16707;48.106;11.548;2022-08-19T01:01:03;16.13;;;10.07;;
29812;SDS011;16707;48.106;11.548;2022-08-19T01:03:35;17.98;;;11.35;;
29812;SDS011;16707;48.106;11.548;2022-08-19T01:06:09;18.25;;;10.63;;
29812;SDS011;16707;48.106;11.548;2022-08-19T01:08:43;17.58;;;10.60;;
29812;SDS011;16707;48.106;11.548;2022-08-19T01:11:42;18.23;;;11.27;;
29812;SDS011;16707;48.106;11.548;2022-08-19T01:14:21;19.48;;;10.75;;
29812;SDS011;16707;48.106;11.548;2022-08-19T01:16:57;18.25;;;11.38;;
29812;SDS011;16707;48.106;11.548;2022-08-19T01:19:27;19.90;;;12.07;;
29812;SDS011;16707;48.106;11.548;2022-08-19T01:22:05;19.48;;;11.40;;
29812;SDS011;16707;48.106;11.548;2022-08-19T01:24:40;19.67;;;11.63;;
29812;SDS011;16707;48.106;11.548;2022-08-19T01:27:09;18.27;;;11.88;;
29812;SDS011;16707;48.106;11.548;2022-08-19T01:29:43;18.08;;;11.93;;
29812;SDS011;16707;48.106;11.548;2022-08-19T01:32:13;18.85;;;12.57;;
29812;SDS011;16707;48.106;11.548;2022-08-19T01:34:44;19.25;;;12.00;;
29812;SDS011;16707;48.106;11.548;2022-08-19T01:37:12;22.75;;;12.98;;
29812;SDS011;16707;48.106;11.548;2022-08-19T01:39:46;20.27;;;11.90;;
29812;SDS011;16707;48.106;11.548;2022-08-19T01:42:21;16.92;;;10.60;;
29812;SDS011;16707;48.106;11.548;2022-08-19T01:44:48;16.80;;;10.77;;
29812;SDS011;16707;48.106;11.548;2022-08-19T01:47:15;16.55;;;10.77;;
29812;SDS011;16707;48.106;11.548;2022-08-19T01:49:43;16.63;;;10.02;;
29812;SDS011;16707;48.106;11.548;2022-08-19T01:52:16;16.50;;;10.85;;
29812;SDS011;16707;48.106;11.548;2022-08-19T01:54:53;14.40;;;9.23;;
29812;SDS011;16707;48.106;11.548;2022-08-19T01:57:20;14.20;;;9.27;;
29812;SDS011;16707;48.106;11.548;2022-08-19T01:59:54;16.08;;;10.02;;
29812;SDS011;16707;48.106;11.548;2022-08-19T02:02:21;14.60;;;9.82;;
29812;SDS011;16707;48.106;11.548;2022-08-19T02:04:53;12.93;;;9.43;;
29812;SDS011;16707;48.106;11.548;2022-08-19T02:07:29;14.35;;;9.68;;
29812;SDS011;16707;48.106;11.548;2022-08-19T02:10:03;13.07;;;8.65;;
29812;SDS011;16707;48.106;11.548;2022-08-19T02:12:37;14.27;;;9.27;;
29812;SDS011;16707;48.106;11.548;2022-08-19T02:15:05;14.32;;;8.73;;
29812;SDS011;16707;48.106;11.548;2022-08-19T02:17:36;12.25;;;8.93;;
29812;SDS011;16707;48.106;11.548;2022-08-19T02:20:04;12.18;;;8.32;;
29812;SDS011;16707;48.106;11.548;2022-08-19T02:22:36;12.75;;;8.85;;
29812;SDS011;16707;48.106;11.548;2022-08-19T02:25:05;11.40;;;8.48;;
29812;SDS011;16707;48.106;11.548;2022-08-19T02:27:38;14.05;;;8.48;;
29812;SDS011;16707;48.106;11.548;2022-08-19T02:30:11;11.40;;;8.30;;
29812;SDS011;16707;48.106;11.548;2022-08-19T02:32:51;14.40;;;8.93;;
29812;SDS011;16707;48.106;11.548;2022-08-19T02:35:27;12.07;;;8.38;;
29812;SDS011;16707;48.106;11.548;2022-08-19T02:37:55;10.20;;;7.32;;
29812;SDS011;16707;48.106;11.548;2022-08-19T02:40:49;10.25;;;7.30;;
29812;SDS011;16707;48.106;11.548;2022-08-19T02:43:22;12.90;;;8.45;;
29812;SDS011;16707;48.106;11.548;2022-08-19T02:45:57;11.23;;;8.07;;
29812;SDS011;16707;48.106;11.548;2022-08-19T02:48:28;11.82;;;8.05;;
29812;SDS011;16707;48.106;11.548;2022-08-19T02:51:07;12.35;;;8.18;;
29812;SDS011;16707;48.106;11.548;2022-08-19T02:53:41;13.45;;;8.45;;
29812;SDS011;16707;48.106;11.548;2022-08-19T02:56:29;12.03;;;7.87;;
29812;SDS011;16707;48.106;11.548;2022-08-19T02:59:07;11.57;;;8.27;;
29812;SDS011;16707;48.106;11.548;2022-08-19T03:01:40;13.05;;;8.70;;
29812;SDS011;16707;48.106;11.548;2022-08-19T03:04:12;11.05;;;7.55;;
29812;SDS011;16707;48.106;11.548;2022-08-19T03:06:44;10.93;;;7.75;;
29812;SDS011;16707;48.106;11.548;2022-08-19T03:09:13;11.07;;;8.20;;
29812;SDS011;16707;48.106;11.548;2022-08-19T03:11:46;12.93;;;7.82;;
29812;SDS011;16707;48.106;11.548;2022-08-19T03:14:16;11.50;;;8.77;;
29812;SDS011;16707;48.106;11.548;2022-08-19T03:16:50;14.52;;;8.50;;
29812;SDS011;16707;48.106;11.548;2022-08-19T03:19:30;13.38;;;9.05;;
29812;SDS011;16707;48.106;11.548;2022-08-19T03:22:01;12.02;;;8.75;;
29812;SDS011;16707;48.106;11.548;2022-08-19T03:24:41;12.03;;;8.60;;
29812;SDS011;16707;48.106;11.548;2022-08-19T03:27:15;12.07;;;8.70;;
29812;SDS011;16707;48.106;11.548;2022-08-19T03:29:43;12.13;;;7.72;;
29812;SDS011;16707;48.106;11.548;2022-08-19T03:32:31;13.40;;;7.82;;
29812;SDS011;16707;48.106;11.548;2022-08-19T03:34:58;11.30;;;8.07;;
29812;SDS011;16707;48.106;11.548;2022-08-19T03:37:31;12.63;;;7.55;;
29812;SDS011;16707;48.106;11.548;2022-08-19T03:40:05;11.70;;;7.90;;
29812;SDS011;16707;48.106;11.548;2022-08-19T03:42:47;11.70;;;7.95;;
29812;SDS011;16707;48.106;11.548;2022-08-19T03:45:15;11.90;;;8.25;;
29812;SDS011;16707;48.106;11.548;2022-08-19T03:47:47;12.40;;;8.77;;
29812;SDS011;16707;48.106;11.548;2022-08-19T03:50:16;12.18;;;8.27;;
29812;SDS011;16707;48.106;11.548;2022-08-19T03:52:49;12.50;;;8.43;;
29812;SDS011;16707;48.106;11.548;2022-08-19T03:55:20;11.63;;;7.75;;
29812;SDS011;16707;48.106;11.548;2022-08-19T03:57:49;11.43;;;7.65;;
29812;SDS011;16707;48.106;11.548;2022-08-19T04:00:21;13.73;;;8.80;;
29812;SDS011;16707;48.106;11.548;2022-08-19T04:02:51;11.25;;;8.15;;
29812;SDS011;16707;48.106;11.548;2022-08-19T04:05:21;13.35;;;8.88;;
29812;SDS011;16707;48.106;11.548;2022-08-19T04:07:54;12.82;;;8.93;;
29812;SDS011;16707;48.106;11.548;2022-08-19T04:10:25;10.77;;;8.15;;
29812;SDS011;16707;48.106;11.548;2022-08-19T04:12:55;12.23;;;8.00;;
29812;SDS011;16707;48.106;11.548;2022-08-19T04:15:39;13.48;;;8.70;;
29812;SDS011;16707;48.106;11.548;2022-08-19T04:18:14;11.38;;;8.27;;
29812;SDS011;16707;48.106;11.548;2022-08-19T04:20:48;11.85;;;8.23;;
29812;SDS011;16707;48.106;11.548;2022-08-19T04:23:27;14.70;;;9.02;;
29812;SDS011;16707;48.106;11.548;2022-08-19T04:26:11;13.60;;;8.18;;
29812;SDS011;16707;48.106;11.548;2022-08-19T04:28:52;11.23;;;7.25;;
29812;SDS011;16707;48.106;11.548;2022-08-19T04:31:30;10.27;;;7.90;;
29812;SDS011;16707;48.106;11.548;2022-08-19T04:34:08;10.38;;;7.32;;
29812;SDS011;16707;48.106;11.548;2022-08-19T04:36:42;11.68;;;7.68;;
29812;SDS011;16707;48.106;11.548;2022-08-19T04:39:24;12.77;;;8.43;;
29812;SDS011;16707;48.106;11.548;2022-08-19T04:42:14;11.02;;;7.47;;
29812;SDS011;16707;48.106;11.548;2022-08-19T04:45:01;13.40;;;8.23;;
29812;SDS011;16707;48.106;11.548;2022-08-19T04:47:36;11.95;;;8.88;;
29812;SDS011;16707;48.106;11.548;2022-08-19T04:50:21;13.50;;;8.25;;
29812;SDS011;16707;48.106;11.548;2022-08-19T04:52:49;11.80;;;8.90;;
29812;SDS011;16707;48.106;11.548;2022-08-19T04:55:18;11.02;;;7.97;;
29812;SDS011;16707;48.106;11.548;2022-08-19T04:57:50;11.43;;;7.60;;
29812;SDS011;16707;48.106;11.548;2022-08-19T05:00:25;13.48;;;7.85;;
29812;SDS011;16707;48.106;11.548;2022-08-19T05:02:52;10.10;;;7.68;;
29812;SDS011;16707;48.106;11.548;2022-08-19T05:05:22;13.50;;;8.02;;
29812;SDS011;16707;48.106;11.548;2022-08-19T05:10:26;10.32;;;7.25;;
29812;SDS011;16707;48.106;11.548;2022-08-19T05:13:02;9.30;;;6.97;;
29812;SDS011;16707;48.106;11.548;2022-08-19T05:15:35;11.35;;;7.35;;
29812;SDS011;16707;48.106;11.548;2022-08-19T05:18:03;11.52;;;8.15;;
29812;SDS011;16707;48.106;11.548;2022-08-19T05:20:56;11.90;;;8.23;;
29812;SDS011;16707;48.106;11.548;2022-08-19T05:23:58;9.65;;;7.30;;
29812;SDS011;16707;48.106;11.548;2022-08-19T05:26:29;11.38;;;7.70;;
29812;SDS011;16707;48.106;11.548;2022-08-19T05:28:56;11.35;;;8.00;;
29812;SDS011;16707;48.106;11.548;2022-08-19T05:31:28;10.70;;;7.90;;
29812;SDS011;16707;48.106;11.548;2022-08-19T05:34:01;11.02;;;7.95;;
29812;SDS011;16707;48.106;11.548;2022-08-19T05:36:34;12.52;;;8.85;;
29812;SDS011;16707;48.106;11.548;2022-08-19T05:39:06;13.88;;;8.15;;
29812;SDS011;16707;48.106;11.548;2022-08-19T05:41:34;11.88;;;7.70;;
29812;SDS011;16707;48.106;11.548;2022-08-19T05:44:02;11.93;;;8.02;;
29812;SDS011;16707;48.106;11.548;2022-08-19T05:46:54;10.35;;;7.25;;
29812;SDS011;16707;48.106;11.548;2022-08-19T05:49:30;11.40;;;8.10;;
29812;SDS011;16707;48.106;11.548;2022-08-19T05:51:58;12.77;;;9.63;;
29812;SDS011;16707;48.106;11.548;2022-08-19T05:54:31;9.90;;;7.85;;
29812;SDS011;16707;48.106;11.548;2022-08-19T05:57:03;12.13;;;8.50;;
29812;SDS011;16707;48.106;11.548;2022-08-19T05:59:30;13.80;;;8.95;;
29812;SDS011;16707;48.106;11.548;2022-08-19T06:02:00;12.02;;;8.48;;
29812;SDS011;16707;48.106;11.548;2022-08-19T06:04:31;14.40;;;9.35;;
29812;SDS011;16707;48.106;11.548;2022-08-19T06:07:02;12.98;;;9.15;;
29812;SDS011;16707;48.106;11.548;2022-08-19T06:09:29;14.20;;;9.88;;
29812;SDS011;16707;48.106;11.548;2022-08-19T06:11:59;14.32;;;9.05;;
29812;SDS011;16707;48.106;11.548;2022-08-19T06:14:30;14.65;;;10.10;;
29812;SDS011;16707;48.106;11.548;2022-08-19T06:17:02;15.70;;;10.05;;
29812;SDS011;16707;48.106;11.548;2022-08-19T06:19:30;16.73;;;10.95;;
29812;SDS011;16707;48.106;11.548;2022-08-19T06:21:58;14.82;;;10.75;;
29812;SDS011;16707;48.106;11.548;2022-08-19T06:24:33;15.95;;;11.20;;
29812;SDS011;16707;48.106;11.548;2022-08-19T06:29:34;19.45;;;12.25;;
29812;SDS011;16707;48.106;11.548;2022-08-19T06:32:03;19.30;;;12.63;;
29812;SDS011;16707;48.106;11.548;2022-08-19T06:34:34;20.95;;;13.73;;
29812;SDS011;16707;48.106;11.548;2022-08-19T06:37:03;20.50;;;13.65;;
29812;SDS011;16707;48.106;11.548;2022-08-19T06:39:36;20.35;;;13.65;;
29812;SDS011;16707;48.106;11.548;2022-08-19T06:42:05;21.75;;;13.40;;
29812;SDS011;16707;48.106;11.548;2022-08-19T06:44:37;21.80;;;14.85;;
29812;SDS011;16707;48.106;11.548;2022-08-19T06:47:09;22.48;;;14.75;;
29812;SDS011;16707;48.106;11.548;2022-08-19T06:49:40;21.02;;;13.50;;
29812;SDS011;16707;48.106;11.548;2022-08-19T06:52:10;21.10;;;13.15;;
29812;SDS011;16707;48.106;11.548;2022-08-19T06:54:39;20.08;;;11.93;;
29812;SDS011;16707;48.106;11.548;2022-08-19T06:57:09;18.55;;;12.50;;
29812;SDS011;16707;48.106;11.548;2022-08-19T06:59:40;20.40;;;13.80;;
29812;SDS011;16707;48.106;11.548;2022-08-19T07:02:11;19.00;;;12.63;;
29812;SDS011;16707;48.106;11.548;2022-08-19T07:04:41;20.92;;;14.02;;
29812;SDS011;16707;48.106;11.548;2022-08-19T07:07:08;17.15;;;12.75;;
29812;SDS011;16707;48.106;11.548;2022-08-19T07:09:42;17.50;;;12.20;;
29812;SDS011;16707;48.106;11.548;2022-08-19T07:12:13;16.48;;;11.90;;
29812;SDS011;16707;48.106;11.548;2022-08-19T07:14:41;21.52;;;13.80;;
29812;SDS011;16707;48.106;11.548;2022-08-19T07:17:12;18.45;;;12.45;;
29812;SDS011;16707;48.106;11.548;2022-08-19T07:19:41;18.83;;;13.05;;
29812;SDS011;16707;48.106;11.548;2022-08-19T07:22:11;17.45;;;12.32;;
29812;SDS011;16707;48.106;11.548;2022-08-19T07:24:39;16.92;;;11.90;;
29812;SDS011;16707;48.106;11.548;2022-08-19T07:27:07;16.80;;;11.48;;
29812;SDS011;16707;48.106;11.548;2022-08-19T07:29:37;16.50;;;11.52;;
29812;SDS011;16707;48.106;11.548;2022-08-19T07:32:05;16.35;;;11.23;;
29812;SDS011;16707;48.106;11.548;2022-08-19T07:34:39;16.75;;;11.15;;
29812;SDS011;16707;48.106;11.548;2022-08-19T07:37:07;16.95;;;12.00;;
29812;SDS011;16707;48.106;11.548;2022-08-19T07:39:34;18.30;;;12.10;;
29812;SDS011;16707;48.106;11.548;2022-08-19T07:42:07;18.02;;;11.07;;
29812;SDS011;16707;48.106;11.548;2022-08-19T07:44:40;17.55;;;11.70;;
29812;SDS011;16707;48.106;11.548;2022-08-19T07:47:08;19.58;;;13.80;;
29812;SDS011;16707;48.106;11.548;2022-08-19T07:49:36;17.65;;;12.02;;
29812;SDS011;16707;48.106;11.548;2022-08-19T07:52:08;16.98;;;12.30;;
29812;SDS011;16707;48.106;11.548;2022-08-19T07:54:38;16.15;;;11.73;;
29812;SDS011;16707;48.106;11.548;2022-08-19T07:57:06;18.70;;;12.45;;
29812;SDS011;16707;48.106;11.548;2022-08-19T07:59:37;17.88;;;12.73;;
29812;SDS011;16707;48.106;11.548;2022-08-19T08:02:04;17.52;;;12.90;;
29812;SDS011;16707;48.106;11.548;2022-08-19T08:04:32;20.33;;;13.77;;
29812;SDS011;16707;48.106;11.548;2022-08-19T08:07:20;21.58;;;14.07;;
29812;SDS011;16707;48.106;11.548;2022-08-19T08:10:06;20.48;;;14.88;;
29812;SDS011;16707;48.106;11.548;2022-08-19T08:12:37;20.48;;;14.35;;
29812;SDS011;16707;48.106;11.548;2022-08-19T08:15:07;20.67;;;15.35;;
29812;SDS011;16707;48.106;11.548;2022-08-19T08:17:41;22.10;;;15.40;;
29812;SDS011;16707;48.106;11.548;2022-08-19T08:20:09;22.20;;;15.30;;
29812;SDS011;16707;48.106;11.548;2022-08-19T08:22:44;23.98;;;16.60;;
29812;SDS011;16707;48.106;11.548;2022-08-19T08:25:33;25.35;;;17.58;;
29812;SDS011;16707;48.106;11.548;2022-08-19T08:28:02;25.42;;;16.95;;
29812;SDS011;16707;48.106;11.548;2022-08-19T08:30:34;27.88;;;17.25;;
29812;SDS011;16707;48.106;11.548;2022-08-19T08:33:04;27.50;;;18.92;;
29812;SDS011;16707;48.106;11.548;2022-08-19T08:35:33;26.05;;;17.65;;
29812;SDS011;16707;48.106;11.548;2022-08-19T08:38:02;27.98;;;18.35;;
29812;SDS011;16707;48.106;11.548;2022-08-19T08:40:43;24.45;;;16.75;;
29812;SDS011;16707;48.106;11.548;2022-08-19T08:43:18;24.92;;;16.83;;
29812;SDS011;16707;48.106;11.548;2022-08-19T08:45:52;21.05;;;15.73;;
29812;SDS011;16707;48.106;11.548;2022-08-19T08:48:29;22.63;;;15.90;;
29812;SDS011;16707;48.106;11.548;2022-08-19T08:51:03;23.75;;;16.50;;
29812;SDS011;16707;48.106;11.548;2022-08-19T08:53:38;21.42;;;15.60;;
29812;SDS011;16707;48.106;11.548;2022-08-19T08:56:09;25.08;;;16.20;;
29812;SDS011;16707;48.106;11.548;2022-08-19T08:58:41;24.27;;;16.50;;
29812;SDS011;16707;48.106;11.548;2022-08-19T09:01:18;24.85;;;16.00;;
29812;SDS011;16707;48.106;11.548;2022-08-19T09:03:45;25.25;;;16.23;;
29812;SDS011;16707;48.106;11.548;2022-08-19T09:06:14;23.20;;;15.10;;
29812;SDS011;16707;48.106;11.548;2022-08-19T09:08:55;22.75;;;15.63;;
29812;SDS011;16707;48.106;11.548;2022-08-19T09:11:35;22.65;;;15.68;;
29812;SDS011;16707;48.106;11.548;2022-08-19T09:14:32;24.25;;;15.20;;
29812;SDS011;16707;48.106;11.548;2022-08-19T09:17:06;21.52;;;14.60;;
29812;SDS011;16707;48.106;11.548;2022-08-19T09:19:35;21.88;;;14.55;;
29812;SDS011;16707;48.106;11.548;2022-08-19T09:22:19;23.27;;;16.00;;
29812;SDS011;16707;48.106;11.548;2022-08-19T09:24:49;22.52;;;15.73;;
29812;SDS011;16707;48.106;11.548;2022-08-19T09:27:18;23.38;;;15.63;;
29812;SDS011;16707;48.106;11.548;2022-08-19T09:29:48;21.45;;;14.20;;
29812;SDS011;16707;48.106;11.548;2022-08-19T09:32:16;17.80;;;12.93;;
29812;SDS011;16707;48.106;11.548;2022-08-19T09:34:53;17.33;;;12.23;;
29812;SDS011;16707;48.106;11.548;2022-08-19T09:37:23;19.88;;;12.65;;
29812;SDS011;16707;48.106;11.548;2022-08-19T09:39:55;16.95;;;12.13;;
29812;SDS011;16707;48.106;11.548;2022-08-19T09:42:26;16.63;;;11.75;;
29812;SDS011;16707;48.106;11.548;2022-08-19T09:44:56;18.05;;;12.38;;
29812;SDS011;16707;48.106;11.548;2022-08-19T09:47:23;17.73;;;13.23;;
29812;SDS011;16707;48.106;11.548;2022-08-19T09:49:53;18.42;;;12.55;;
29812;SDS011;16707;48.106;11.548;2022-08-19T09:52:21;17.38;;;12.30;;
29812;SDS011;16707;48.106;11.548;2022-08-19T09:54:49;19.15;;;13.30;;
29812;SDS011;16707;48.106;11.548;2022-08-19T09:57:20;17.98;;;12.65;;
29812;SDS011;16707;48.106;11.548;2022-08-19T09:59:47;17.92;;;12.20;;
29812;SDS011;16707;48.106;11.548;2022-08-19T10:02:15;18.48;;;12.60;;
29812;SDS011;16707;48.106;11.548;2022-08-19T10:04:43;19.23;;;12.88;;
29812;SDS011;16707;48.106;11.548;2022-08-19T10:07:28;18.33;;;13.75;;
29812;SDS011;16707;48.106;11.548;2022-08-19T10:09:56;17.40;;;12.05;;
29812;SDS011;16707;48.106;11.548;2022-08-19T10:12:25;17.02;;;12.57;;
29812;SDS011;16707;48.106;11.548;2022-08-19T10:14:52;17.17;;;12.02;;
29812;SDS011;16707;48.106;11.548;2022-08-19T10:17:19;16.05;;;11.98;;
29812;SDS011;16707;48.106;11.548;2022-08-19T10:19:47;18.20;;;13.00;;
29812;SDS011;16707;48.106;11.548;2022-08-19T10:22:14;16.67;;;12.18;;
29812;SDS011;16707;48.106;11.548;2022-08-19T10:24:41;15.77;;;11.50;;
29812;SDS011;16707;48.106;11.548;2022-08-19T10:27:08;15.05;;;11.20;;
29812;SDS011;16707;48.106;11.548;2022-08-19T10:29:37;15.77;;;10.73;;
29812;SDS011;16707;48.106;11.548;2022-08-19T10:32:05;15.23;;;10.70;;
29812;SDS011;16707;48.106;11.548;2022-08-19T10:34:34;19.23;;;12.50;;
29812;SDS011;16707;48.106;11.548;2022-08-19T10:37:03;14.00;;;10.65;;
29812;SDS011;16707;48.106;11.548;2022-08-19T10:39:33;14.95;;;10.95;;
29812;SDS011;16707;48.106;11.548;2022-08-19T10:42:04;14.57;;;10.02;;
29812;SDS011;16707;48.106;11.548;2022-08-19T10:44:37;14.48;;;11.05;;
29812;SDS011;16707;48.106;11.548;2022-08-19T10:47:04;15.38;;;11.02;;
29812;SDS011;16707;48.106;11.548;2022-08-19T10:49:32;16.35;;;10.77;;
29812;SDS011;16707;48.106;11.548;2022-08-19T10:52:19;14.70;;;10.30;;
29812;SDS011;16707;48.106;11.548;2022-08-19T10:55:02;11.55;;;9.18;;
29812;SDS011;16707;48.106;11.548;2022-08-19T10:57:48;8.80;;;7.25;;
29812;SDS011;16707;48.106;11.548;2022-08-19T11:00:18;8.48;;;7.25;;
29812;SDS011;16707;48.106;11.548;2022-08-19T11:02:47;10.02;;;7.25;;
29812;SDS011;16707;48.106;11.548;2022-08-19T11:05:15;9.32;;;7.25;;
29812;SDS011;16707;48.106;11.548;2022-08-19T11:07:43;8.30;;;6.68;;
29812;SDS011;16707;48.106;11.548;2022-08-19T11:10:12;8.40;;;6.00;;
29812;SDS011;16707;48.106;11.548;2022-08-19T11:12:46;7.35;;;6.35;;
29812;SDS011;16707;48.106;11.548;2022-08-19T11:15:15;8.35;;;6.30;;
29812;SDS011;16707;48.106;11.548;2022-08-19T11:17:44;7.38;;;6.32;;
29812;SDS011;16707;48.106;11.548;2022-08-19T11:20:12;8.10;;;6.63;;
29812;SDS011;16707;48.106;11.548;2022-08-19T11:22:41;9.60;;;6.60;;
29812;SDS011;16707;48.106;11.548;2022-08-19T11:25:09;6.90;;;5.88;;
29812;SDS011;16707;48.106;11.548;2022-08-19T11:27:37;7.30;;;5.85;;
29812;SDS011;16707;48.106;11.548;2022-08-19T11:30:08;9.32;;;7.30;;
29812;SDS011;16707;48.106;11.548;2022-08-19T11:32:41;10.70;;;9.25;;
29812;SDS011;16707;48.106;11.548;2022-08-19T11:35:11;9.93;;;7.63;;
29812;SDS011;16707;48.106;11.548;2022-08-19T11:37:38;9.57;;;7.63;;
29812;SDS011;16707;48.106;11.548;2022-08-19T11:40:06;9.52;;;7.50;;
29812;SDS011;16707;48.106;11.548;2022-08-19T11:42:35;9.70;;;7.30;;
29812;SDS011;16707;48.106;11.548;2022-08-19T11:45:19;8.05;;;7.05;;
29812;SDS011;16707;48.106;11.548;2022-08-19T11:47:51;6.78;;;5.38;;
29812;SDS011;16707;48.106;11.548;2022-08-19T11:50:18;6.85;;;5.70;;
29812;SDS011;16707;48.106;11.548;2022-08-19T11:52:48;5.80;;;4.93;;
29812;SDS011;16707;48.106;11.548;2022-08-19T11:55:16;6.10;;;4.40;;
29812;SDS011;16707;48.106;11.548;2022-08-19T11:57:46;4.95;;;4.15;;
29812;SDS011;16707;48.106;11.548;2022-08-19T12:00:18;4.95;;;4.10;;
29812;SDS011;16707;48.106;11.548;2022-08-19T12:02:46;4.45;;;4.00;;
29812;SDS011;16707;48.106;11.548;2022-08-19T12:05:15;6.13;;;4.40;;
29812;SDS011;16707;48.106;11.548;2022-08-19T12:07:44;5.05;;;3.97;;
29812;SDS011;16707;48.106;11.548;2022-08-19T12:10:12;4.22;;;2.85;;
29812;SDS011;16707;48.106;11.548;2022-08-19T12:12:39;2.67;;;2.30;;
29812;SDS011;16707;48.106;11.548;2022-08-19T12:15:08;2.25;;;2.00;;
29812;SDS011;16707;48.106;11.548;2022-08-19T12:17:37;2.65;;;2.35;;
29812;SDS011;16707;48.106;11.548;2022-08-19T12:20:05;2.92;;;1.80;;
29812;SDS011;16707;48.106;11.548;2022-08-19T12:22:39;2.22;;;1.65;;
29812;SDS011;16707;48.106;11.548;2022-08-19T12:25:10;1.75;;;1.63;;
29812;SDS011;16707;48.106;11.548;2022-08-19T12:27:38;2.10;;;1.90;;
29812;SDS011;16707;48.106;11.548;2022-08-19T12:30:06;1.40;;;1.30;;
29812;SDS011;16707;48.106;11.548;2022-08-19T12:32:37;1.35;;;1.25;;
29812;SDS011;16707;48.106;11.548;2022-08-19T12:35:06;1.60;;;1.40;;
29812;SDS011;16707;48.106;11.548;2022-08-19T12:37:36;1.58;;;1.40;;
29812;SDS011;16707;48.106;11.548;2022-08-19T12:40:06;3.78;;;1.48;;
29812;SDS011;16707;48.106;11.548;2022-08-19T12:42:36;1.73;;;1.40;;
29812;SDS011;16707;48.106;11.548;2022-08-19T12:45:07;1.40;;;1.30;;
29812;SDS011;16707;48.106;11.548;2022-08-19T12:47:38;2.10;;;1.38;;
29812;SDS011;16707;48.106;11.548;2022-08-19T12:50:06;1.40;;;1.10;;
29812;SDS011;16707;48.106;11.548;2022-08-19T12:52:35;2.03;;;1.40;;
29812;SDS011;16707;48.106;11.548;2022-08-19T12:55:03;1.30;;;1.20;;
29812;SDS011;16707;48.106;11.548;2022-08-19T12:57:34;1.27;;;1.10;;
29812;SDS011;16707;48.106;11.548;2022-08-19T13:00:04;1.20;;;1.00;;
29812;SDS011;16707;48.106;11.548;2022-08-19T13:02:37;1.90;;;1.67;;
29812;SDS011;16707;48.106;11.548;2022-08-19T13:05:06;1.77;;;1.30;;
29812;SDS011;16707;48.106;11.548;2022-08-19T13:07:36;2.53;;;1.50;;
29812;SDS011;16707;48.106;11.548;2022-08-19T13:10:06;2.33;;;1.35;;
29812;SDS011;16707;48.106;11.548;2022-08-19T13:12:37;1.80;;;1.40;;
29812;SDS011;16707;48.106;11.548;2022-08-19T13:15:06;1.90;;;1.60;;
29812;SDS011;16707;48.106;11.548;2022-08-19T13:17:34;2.10;;;1.30;;
29812;SDS011;16707;48.106;11.548;2022-08-19T13:20:02;2.38;;;1.70;;
29812;SDS011;16707;48.106;11.548;2022-08-19T13:22:35;1.90;;;1.80;;
29812;SDS011;16707;48.106;11.548;2022-08-19T13:25:03;1.90;;;1.50;;
29812;SDS011;16707;48.106;11.548;2022-08-19T13:27:38;1.27;;;1.17;;
29812;SDS011;16707;48.106;11.548;2022-08-19T13:30:07;1.60;;;1.50;;
29812;SDS011;16707;48.106;11.548;2022-08-19T13:32:54;1.92;;;1.40;;
29812;SDS011;16707;48.106;11.548;2022-08-19T13:35:37;1.58;;;1.48;;
29812;SDS011;16707;48.106;11.548;2022-08-19T13:38:04;1.77;;;1.23;;
29812;SDS011;16707;48.106;11.548;2022-08-19T13:40:33;1.88;;;1.48;;
29812;SDS011;16707;48.106;11.548;2022-08-19T13:43:01;1.55;;;1.40;;
29812;SDS011;16707;48.106;11.548;2022-08-19T13:45:32;1.55;;;1.42;;
29812;SDS011;16707;48.106;11.548;2022-08-19T13:48:00;1.90;;;1.60;;
29812;SDS011;16707;48.106;11.548;2022-08-19T13:50:31;2.20;;;1.52;;
29812;SDS011;16707;48.106;11.548;2022-08-19T13:53:01;2.28;;;1.75;;
29812;SDS011;16707;48.106;11.548;2022-08-19T13:55:30;1.98;;;1.77;;
29812;SDS011;16707;48.106;11.548;2022-08-19T13:58:03;2.30;;;1.92;;
29812;SDS011;16707;48.106;11.548;2022-08-19T14:00:36;1.63;;;1.52;;
29812;SDS011;16707;48.106;11.548;2022-08-19T14:03:08;3.08;;;2.13;;
29812;SDS011;16707;48.106;11.548;2022-08-19T14:05:39;2.40;;;2.00;;
29812;SDS011;16707;48.106;11.548;2022-08-19T14:08:06;2.70;;;2.00;;
29812;SDS011;16707;48.106;11.548;2022-08-19T14:10:34;2.75;;;2.33;;
29812;SDS011;16707;48.106;11.548;2022-08-19T14:13:03;3.13;;;2.40;;
29812;SDS011;16707;48.106;11.548;2022-08-19T14:15:31;2.35;;;2.10;;
29812;SDS011;16707;48.106;11.548;2022-08-19T14:18:07;2.63;;;2.40;;
29812;SDS011;16707;48.106;11.548;2022-08-19T14:20:36;2.92;;;2.63;;
29812;SDS011;16707;48.106;11.548;2022-08-19T14:23:04;2.97;;;2.65;;
29812;SDS011;16707;48.106;11.548;2022-08-19T14:25:31;4.30;;;2.72;;
29812;SDS011;16707;48.106;11.548;2022-08-19T14:28:06;3.08;;;2.50;;
29812;SDS011;16707;48.106;11.548;2022-08-19T14:30:37;3.42;;;2.60;;
29812;SDS011;16707;48.106;11.548;2022-08-19T14:33:05;2.88;;;2.30;;
29812;SDS011;16707;48.106;11.548;2022-08-19T14:35:36;2.67;;;2.45;;
29812;SDS011;16707;48.106;11.548;2022-08-19T14:38:14;3.38;;;2.30;;
29812;SDS011;16707;48.106;11.548;2022-08-19T14:40:46;2.28;;;1.90;;
29812;SDS011;16707;48.106;11.548;2022-08-19T14:43:19;2.20;;;2.00;;
29812;SDS011;16707;48.106;11.548;2022-08-19T14:45:47;2.72;;;2.35;;
29812;SDS011;16707;48.106;11.548;2022-08-19T14:48:15;2.20;;;2.00;;
29812;SDS011;16707;48.106;11.548;2022-08-19T14:50:46;3.58;;;1.92;;
29812;SDS011;16707;48.106;11.548;2022-08-19T14:53:13;2.03;;;1.75;;